地図

経路データ

SID SEASON NUMBER BASIN SUBBASIN NAME ISO_TIME NATURE LAT LON WMO_WIND WMO_PRES WMO_AGENCY TRACK_TYPE DIST2LAND LANDFALL IFLAG USA_AGENCY USA_ATCF_ID USA_LAT USA_LON USA_RECORD USA_STATUS USA_WIND USA_PRES USA_SSHS USA_R34_NE USA_R34_SE USA_R34_SW USA_R34_NW USA_R50_NE USA_R50_SE USA_R50_SW USA_R50_NW USA_R64_NE USA_R64_SE USA_R64_SW USA_R64_NW USA_POCI USA_ROCI USA_RMW USA_EYE TOKYO_LAT TOKYO_LON TOKYO_GRADE TOKYO_WIND TOKYO_PRES TOKYO_R50_DIR TOKYO_R50_LONG TOKYO_R50_SHORT TOKYO_R30_DIR TOKYO_R30_LONG TOKYO_R30_SHORT TOKYO_LAND CMA_LAT CMA_LON CMA_CAT CMA_WIND CMA_PRES HKO_LAT HKO_LON HKO_CAT HKO_WIND HKO_PRES NEWDELHI_LAT NEWDELHI_LON NEWDELHI_GRADE NEWDELHI_WIND NEWDELHI_PRES NEWDELHI_CI NEWDELHI_DP NEWDELHI_POCI REUNION_LAT REUNION_LON REUNION_TYPE REUNION_WIND REUNION_PRES REUNION_TNUM REUNION_CI REUNION_RMW REUNION_R34_NE REUNION_R34_SE REUNION_R34_SW REUNION_R34_NW REUNION_R50_NE REUNION_R50_SE REUNION_R50_SW REUNION_R50_NW REUNION_R64_NE REUNION_R64_SE REUNION_R64_SW REUNION_R64_NW BOM_LAT BOM_LON BOM_TYPE BOM_WIND BOM_PRES BOM_TNUM BOM_CI BOM_RMW BOM_R34_NE BOM_R34_SE BOM_R34_SW BOM_R34_NW BOM_R50_NE BOM_R50_SE BOM_R50_SW BOM_R50_NW BOM_R64_NE BOM_R64_SE BOM_R64_SW BOM_R64_NW BOM_ROCI BOM_POCI BOM_EYE BOM_POS_METHOD BOM_PRES_METHOD NADI_LAT NADI_LON NADI_CAT NADI_WIND NADI_PRES WELLINGTON_LAT WELLINGTON_LON WELLINGTON_WIND WELLINGTON_PRES DS824_LAT DS824_LON DS824_STAGE DS824_WIND DS824_PRES TD9636_LAT TD9636_LON TD9636_STAGE TD9636_WIND TD9636_PRES TD9635_LAT TD9635_LON TD9635_WIND TD9635_PRES TD9635_ROCI NEUMANN_LAT NEUMANN_LON NEUMANN_CLASS NEUMANN_WIND NEUMANN_PRES MLC_LAT MLC_LON MLC_CLASS MLC_WIND MLC_PRES USA_GUST BOM_GUST BOM_GUST_PER REUNION_GUST REUNION_GUST_PER USA_SEAHGT USA_SEARAD_NE USA_SEARAD_SE USA_SEARAD_SW USA_SEARAD_NW STORM_SPEED STORM_DIR
1868032S17081 1868 5 SI MM NOT_NAMED 1868-02-01 06:00:00 NR -17.3000 80.6000 spur-split 2421 2398 _____O________ -1 -17.3000 80.6000 99 9.90000 4 243
1868032S17081 1868 5 SI MM NOT_NAMED 1868-02-01 09:00:00 NR -17.3830 80.4262 spur-split 2398 2385 _____P________ -1 -17.3830 80.4262 99 4 243
1868032S17081 1868 5 SI MM NOT_NAMED 1868-02-01 12:00:00 NR -17.4688 80.2475 spur-split 2375 2362 _____P________ -1 -17.4688 80.2475 99 4 243
1868032S17081 1868 5 SI MM NOT_NAMED 1868-02-01 15:00:00 NR -17.5602 80.0590 spur-split 2362 2339 _____P________ -1 -17.5602 80.0590 99 4 243
1868032S17081 1868 5 SI MM NOT_NAMED 1868-02-01 18:00:00 NR -17.6600 79.8559 spur-split 2339 2306 _____P________ -1 -17.6600 79.8559 99 5 242
1868032S17081 1868 5 SI MM NOT_NAMED 1868-02-01 21:00:00 NR -17.7711 79.6334 spur-split 2306 2283 _____P________ -1 -17.7711 79.6334 99 5 242
1868032S17081 1868 5 SI MM NOT_NAMED 1868-02-02 00:00:00 NR -17.8963 79.3866 spur-split 2283 2250 _____P________ -1 -17.8963 79.3866 99 6 242
1868032S17081 1868 5 SI MM NOT_NAMED 1868-02-02 03:00:00 NR -18.0384 79.1104 spur-split 2250 2215 _____P________ -1 -18.0384 79.1104 99 6 241
1868032S17081 1868 5 SI MM NOT_NAMED 1868-02-02 06:00:00 NR -18.2000 78.8000 reunion spur-split 2215 2180 _____O________ -1 -18.2000 78.8000 99 9.90000 7 241
1868032S17081 1868 5 SI MM NOT_NAMED 1868-02-02 09:00:00 NR -18.3833 78.4515 spur-split 2180 2135 _____P________ -1 -18.3833 78.4515 99 8 241
1868032S17081 1868 5 SI MM NOT_NAMED 1868-02-02 12:00:00 NR -18.5877 78.0660 spur-split 2135 2090 _____P________ -1 -18.5877 78.0660 99 9 241
1868032S17081 1868 5 SI MM NOT_NAMED 1868-02-02 15:00:00 NR -18.8123 77.6457 spur-split 2080 2035 _____P________ -1 -18.8123 77.6457 99 10 240
1868032S17081 1868 5 SI MM NOT_NAMED 1868-02-02 18:00:00 NR -19.0559 77.1930 spur-split 2034 1979 _____P________ -1 -19.0559 77.1930 99 10 240
1868032S17081 1868 5 SI MM NOT_NAMED 1868-02-02 21:00:00 NR -19.3175 76.7099 spur-split 1979 1923 _____P________ -1 -19.3175 76.7099 99 11 240
1868032S17081 1868 5 SI MM NOT_NAMED 1868-02-03 00:00:00 NR -19.5960 76.1986 spur-split 1923 1868 _____P________ -1 -19.5960 76.1986 99 11 240
1868032S17081 1868 5 SI MM NOT_NAMED 1868-02-03 03:00:00 NR -19.8905 75.6613 spur-split 1868 1803 _____P________ -1 -19.8905 75.6613 99 12 240
1868032S17081 1868 5 SI MM NOT_NAMED 1868-02-03 06:00:00 NR -20.2000 75.1000 reunion spur-split 1803 1750 _____O________ -1 -20.2000 75.1000 99 9.90000 12 240
1868032S17081 1868 5 SI MM NOT_NAMED 1868-02-03 09:00:00 NR -20.5136 74.5186 spur-split 1739 1676 _____P________ -1 -20.5136 74.5186 99 13 240
1868032S17081 1868 5 SI MM NOT_NAMED 1868-02-03 12:00:00 NR -20.8441 73.9063 spur-split 1676 1613 _____P________ -1 -20.8441 73.9063 99 14 240
1868032S17081 1868 5 SI MM NOT_NAMED 1868-02-03 15:00:00 NR -21.1882 73.2704 spur-split 1613 1552 _____P________ -1 -21.1882 73.2704 99 14 240
1868032S17081 1868 5 SI MM NOT_NAMED 1868-02-03 18:00:00 NR -21.5424 72.6183 spur-split 1542 1483 _____P________ -1 -21.5424 72.6183 99 14 240
1868032S17081 1868 5 SI MM NOT_NAMED 1868-02-03 21:00:00 NR -21.9037 71.9575 spur-split 1483 1414 _____P________ -1 -21.9037 71.9575 99 14 239
1868032S17081 1868 5 SI MM NOT_NAMED 1868-02-04 00:00:00 NR -22.2690 71.2957 spur-split 1415 1358 _____P________ -1 -22.2690 71.2957 99 14 239
1868032S17081 1868 5 SI MM NOT_NAMED 1868-02-04 03:00:00 NR -22.6354 70.6406 spur-split 1348 1295 _____P________ -1 -22.6354 70.6406 99 14 239
1868032S17081 1868 5 SI MM NOT_NAMED 1868-02-04 06:00:00 NR -23.0000 70.0000 reunion spur-split 1295 1242 _____O________ -1 -23.0000 70.0000 99 9.90000 14 238
1868032S17081 1868 5 SI MM NOT_NAMED 1868-02-04 09:00:00 NR -23.3745 69.3591 spur-split 1245 1195 _____P________ -1 -23.3745 69.3591 99 14 237
1868032S17081 1868 5 SI MM NOT_NAMED 1868-02-04 12:00:00 NR -23.7526 68.7236 spur-split 1188 1141 _____P________ -1 -23.7526 68.7236 99 14 237
1868032S17081 1868 5 SI MM NOT_NAMED 1868-02-04 15:00:00 NR -24.1289 68.1001 spur-split 1141 1100 _____P________ -1 -24.1289 68.1001 99 13 236
1868032S17081 1868 5 SI MM NOT_NAMED 1868-02-04 18:00:00 NR -24.4982 67.4950 spur-split 1100 1058 _____P________ -1 -24.4982 67.4950 99 13 236
1868032S17081 1868 5 SI MM NOT_NAMED 1868-02-04 21:00:00 NR -24.8551 66.9153 spur-split 1063 1034 _____P________ -1 -24.8551 66.9153 99 12 236
1868032S17081 1868 5 SI MM NOT_NAMED 1868-02-05 00:00:00 NR -25.1944 66.3681 spur-split 1034 1007 _____P________ -1 -25.1944 66.3681 99 12 236
1868032S17081 1868 5 SI MM NOT_NAMED 1868-02-05 03:00:00 NR -25.5111 65.8605 spur-split 1007 984 _____P________ -1 -25.5111 65.8605 99 11 235
1868032S17081 1868 5 SI MM NOT_NAMED 1868-02-05 06:00:00 NR -25.8000 65.4000 reunion spur-split 984 965 _____O________ -1 -25.8000 65.4000 99 9.90000 9 236
1868032S17081 1868 5 SI MM NOT_NAMED 1868-02-05 09:00:00 NR -26.0387 65.0068 spur-split 965 956 _____P________ -1 -26.0387 65.0068 99 8 236
1868032S17081 1868 5 SI MM NOT_NAMED 1868-02-05 12:00:00 NR -26.2503 64.6641 spur-split 963 948 _____P________ -1 -26.2503 64.6641 99 7 235
1868032S17081 1868 5 SI MM NOT_NAMED 1868-02-05 15:00:00 NR -26.4411 64.3619 spur-split 949 942 _____P________ -1 -26.4411 64.3619 99 6 234
1868032S17081 1868 5 SI MM NOT_NAMED 1868-02-05 18:00:00 NR -26.6176 64.0902 spur-split 943 936 _____P________ -1 -26.6176 64.0902 99 6 234
1868032S17081 1868 5 SI MM NOT_NAMED 1868-02-05 21:00:00 NR -26.7856 63.8385 spur-split 938 933 _____P________ -1 -26.7856 63.8385 99 6 233
1868032S17081 1868 5 SI MM NOT_NAMED 1868-02-06 00:00:00 NR -26.9515 63.5966 spur-split 941 935 _____P________ -1 -26.9515 63.5966 99 5 232
1868032S17081 1868 5 SI MM NOT_NAMED 1868-02-06 03:00:00 NR -27.1209 63.3540 spur-split 937 931 _____P________ -1 -27.1209 63.3540 99 6 232
1868032S17081 1868 5 SI MM NOT_NAMED 1868-02-06 06:00:00 NR -27.3000 63.1000 reunion spur-split 936 931 _____O________ -1 -27.3000 63.1000 99 9.90000 6 233
1868032S17081 1868 5 SI MM NOT_NAMED 1868-02-06 09:00:00 NR -27.4793 62.8124 spur-split 937 932 _____P________ -1 -27.4793 62.8124 99 6 235
1868032S17081 1868 5 SI MM NOT_NAMED 1868-02-06 12:00:00 NR -27.6612 62.5218 spur-split 940 934 _____P________ -1 -27.6612 62.5218 99 6 234
1868032S17081 1868 5 SI MM NOT_NAMED 1868-02-06 15:00:00 NR -27.8509 62.2245 spur-split 944 939 _____P________ -1 -27.8509 62.2245 99 7 234
1868032S17081 1868 5 SI MM NOT_NAMED 1868-02-06 18:00:00 NR -28.0538 61.9167 spur-split 949 945 _____P________ -1 -28.0538 61.9167 99 7 233
1868032S17081 1868 5 SI MM NOT_NAMED 1868-02-06 21:00:00 NR -28.2750 61.5944 spur-split 956 952 _____P________ -1 -28.2750 61.5944 99 7 231
1868032S17081 1868 5 SI MM NOT_NAMED 1868-02-07 00:00:00 NR -28.5197 61.2537 spur-split 965 961 _____P________ -1 -28.5197 61.2537 99 8 230
1868032S17081 1868 5 SI MM NOT_NAMED 1868-02-07 03:00:00 NR -28.7930 60.8903 spur-split 981 977 _____P________ -1 -28.7930 60.8903 99 9 229
1868032S17081 1868 5 SI MM NOT_NAMED 1868-02-07 06:00:00 NR -29.1000 60.5000 reunion spur-split 990 990 _____O________ -1 -29.1000 60.5000 99 9.90000 10 227
1868032S17081 1868 5 SI MM NOT_NAMED 1868-02-07 09:00:00 NR -29.4955 60.0192 spur-split 1006 1006 _____P________ -1 -29.4955 60.0192 99 12 226
1868032S17081 1868 5 SI MM NOT_NAMED 1868-02-07 12:00:00 NR -29.9299 59.5016 spur-split 1026 1026 _____P________ -1 -29.9299 59.5016 99 13 226
1868032S17081 1868 5 SI MM NOT_NAMED 1868-02-07 15:00:00 NR -30.3877 58.9622 spur-split 1061 1057 _____P________ -1 -30.3877 58.9622 99 13 225
1868032S17081 1868 5 SI MM NOT_NAMED 1868-02-07 18:00:00 NR -30.8535 58.4163 spur-split 1097 1094 _____P________ -1 -30.8535 58.4163 99 13 225
1868032S17081 1868 5 SI MM NOT_NAMED 1868-02-07 21:00:00 NR -31.3123 57.8801 spur-split 1129 1129 _____P________ -1 -31.3123 57.8801 99 13 225
1868032S17081 1868 5 SI MM NOT_NAMED 1868-02-08 00:00:00 NR -31.7493 57.3703 spur-split 1164 1164 _____P________ -1 -31.7493 57.3703 99 12 225
1868032S17081 1868 5 SI MM NOT_NAMED 1868-02-08 03:00:00 NR -32.1500 56.9043 spur-split 1201 1201 _____P________ -1 -32.1500 56.9043 99 11 224
1868032S17081 1868 5 SI MM NOT_NAMED 1868-02-08 06:00:00 NR -32.5000 56.5000 reunion spur-split 1238 1231 _____O________ -1 -32.5000 56.5000 99 9.90000 9 224
1868032S17081 1868 5 SI MM NOT_NAMED 1868-02-08 09:00:00 NR -32.7891 56.1710 spur-split 1239 1232 _____P________ -1 -32.7891 56.1710 99 7 223
1868032S17081 1868 5 SI MM NOT_NAMED 1868-02-08 12:00:00 NR -33.0221 55.9128 spur-split 1233 1233 _____P________ -1 -33.0221 55.9128 99 6 222
1868032S17081 1868 5 SI MM NOT_NAMED 1868-02-08 15:00:00 NR -33.2074 55.7158 spur-split 1235 1235 _____P________ -1 -33.2074 55.7158 99 4 221
1868032S17081 1868 5 SI MM NOT_NAMED 1868-02-08 18:00:00 NR -33.3531 55.5703 spur-split 1244 1238 _____P________ -1 -33.3531 55.5703 99 3 219
1868032S17081 1868 5 SI MM NOT_NAMED 1868-02-08 21:00:00 NR -33.4673 55.4663 spur-split 1246 1240 _____P________ -1 -33.4673 55.4663 99 3 216
1868032S17081 1868 5 SI MM NOT_NAMED 1868-02-09 00:00:00 NR -33.5579 55.3935 spur-split 1248 1242 _____P________ -1 -33.5579 55.3935 99 2 213
1868032S17081 1868 5 SI MM NOT_NAMED 1868-02-09 03:00:00 NR -33.6329 55.3415 spur-split 1242 1242 _____P________ -1 -33.6329 55.3415 99 2 209
1868032S17081 1868 5 SI MM NOT_NAMED 1868-02-09 06:00:00 NR -33.7000 55.3000 reunion spur-split 1250 _____O________ -1 -33.7000 55.3000 99 9.90000 2 212

IBTrACS Databaseについて

本データベースは、米国NOAAが公開する1842年以降の世界の熱帯低気圧のベストトラックデータアーカイブInternational Best Track Archive for Climate Stewardship (IBTrACS)を、ウェブで閲覧しやすい形式に変換したものです。

最終更新日:2021-11-26